createdAt,value
2018-04-23T00:00:57.984Z,95370
2018-04-23T00:03:28.219Z,95364
2018-04-23T00:05:58.184Z,95374
2018-04-23T00:08:29.042Z,95370
2018-04-23T00:10:58.987Z,95375
2018-04-23T00:13:28.933Z,95370
2018-04-23T00:15:58.925Z,95380
2018-04-23T00:18:28.880Z,95381
2018-04-23T00:20:58.817Z,95376
2018-04-23T00:23:28.775Z,95377
2018-04-23T00:25:58.742Z,95372
2018-04-23T00:28:28.622Z,95367
2018-04-23T00:30:59.442Z,95361
2018-04-23T00:33:30.284Z,95363
2018-04-23T00:36:00.980Z,95368
2018-04-23T00:38:30.897Z,95361
2018-04-23T00:41:00.822Z,95363
2018-04-23T00:43:30.798Z,95364
2018-04-23T00:46:00.715Z,95367
2018-04-23T00:48:30.687Z,95366
2018-04-23T00:51:01.448Z,95367
2018-04-23T00:53:39.236Z,95370
2018-04-23T00:56:09.957Z,95372
2018-04-23T00:58:40.697Z,95376
2018-04-23T01:01:10.627Z,95377
2018-04-23T01:03:41.365Z,95369
2018-04-23T01:06:11.365Z,95371
2018-04-23T01:08:42.064Z,95374
2018-04-23T01:11:12.622Z,95371
2018-04-23T01:13:42.561Z,95375
2018-04-23T01:16:12.570Z,95376
2018-04-23T01:18:43.292Z,95376
2018-04-23T01:21:14.005Z,95374
2018-04-23T01:23:43.922Z,95373
2018-04-23T01:26:13.852Z,95370
2018-04-23T01:28:44.588Z,95378
2018-04-23T01:31:15.307Z,95371
2018-04-23T01:33:46.068Z,95376
2018-04-23T01:36:16.784Z,95376
2018-04-23T01:38:47.545Z,95379
2018-04-23T01:41:17.588Z,95375
2018-04-23T01:43:47.576Z,95374
2018-04-23T01:46:17.536Z,95380
2018-04-23T01:48:47.524Z,95383
2018-04-23T01:51:17.476Z,95381
2018-04-23T01:53:47.405Z,95388
2018-04-23T01:56:18.784Z,95391
2018-04-23T01:58:48.800Z,95391
2018-04-23T02:01:18.720Z,95386
2018-04-23T02:03:48.696Z,95390
2018-04-23T02:06:18.661Z,95387
2018-04-23T02:08:48.560Z,95393
2018-04-23T02:11:19.312Z,95390
2018-04-23T02:13:49.281Z,95393
2018-04-23T02:16:19.983Z,95389
2018-04-23T02:18:49.916Z,95393
2018-04-23T02:21:19.904Z,95391
2018-04-23T02:23:49.792Z,95393
2018-04-23T02:26:19.726Z,95391
2018-04-23T02:28:49.736Z,95390
2018-04-23T02:31:19.897Z,95386
2018-04-23T02:33:50.671Z,95387
2018-04-23T02:36:20.646Z,95384
2018-04-23T02:38:50.579Z,95387
2018-04-23T02:41:21.282Z,95390
2018-04-23T02:43:51.183Z,95391
2018-04-23T02:46:21.128Z,95391
2018-04-23T02:48:51.029Z,95386
2018-04-23T02:51:20.942Z,95385
2018-04-23T02:53:51.240Z,95390
2018-04-23T02:56:22.002Z,95390
2018-04-23T02:58:51.928Z,95394
2018-04-23T03:01:23.548Z,95395
2018-04-23T03:03:54.393Z,95396
2018-04-23T03:06:24.327Z,95392
2018-04-23T03:08:54.244Z,95399
2018-04-23T03:11:24.223Z,95398
2018-04-23T03:13:54.126Z,95396
2018-04-23T03:16:24.126Z,95393
2018-04-23T03:18:54.102Z,95395
2018-04-23T03:21:24.026Z,95396
2018-04-23T03:23:54.745Z,95402
2018-04-23T03:26:24.661Z,95402
2018-04-23T03:28:54.589Z,95404
2018-04-23T03:31:25.349Z,95401
2018-04-23T03:33:56.052Z,95414
2018-04-23T03:36:25.983Z,95409
2018-04-23T03:38:55.912Z,95411
2018-04-23T03:41:26.555Z,95409
2018-04-23T03:43:56.466Z,95411
2018-04-23T03:46:27.149Z,95409
2018-04-23T03:48:58.046Z,95409
2018-04-23T03:51:28.705Z,95411
2018-04-23T03:53:58.632Z,95416
2018-04-23T03:56:29.369Z,95408
2018-04-23T03:58:59.266Z,95408
2018-04-23T04:01:30.449Z,95417
2018-04-23T04:04:00.490Z,95421
2018-04-23T04:06:31.123Z,95417
2018-04-23T04:09:01.018Z,95419
2018-04-23T04:11:30.965Z,95425
2018-04-23T04:14:18.587Z,95424
2018-04-23T04:17:00.296Z,95419
2018-04-23T04:19:31.147Z,95426
2018-04-23T04:22:01.029Z,95419
2018-04-23T04:24:30.910Z,95423
2018-04-23T04:27:01.587Z,95425
2018-04-23T04:29:32.330Z,95424
2018-04-23T04:32:03.133Z,95424
2018-04-23T04:34:33.800Z,95428
2018-04-23T04:37:03.702Z,95432
2018-04-23T04:39:34.462Z,95436
2018-04-23T04:42:04.351Z,95433
2018-04-23T04:44:34.247Z,95433
2018-04-23T04:47:04.895Z,95438
2018-04-23T04:49:34.808Z,95442
2018-04-23T04:52:04.671Z,95436
2018-04-23T04:54:35.387Z,95440
2018-04-23T04:57:06.063Z,95438
2018-04-23T04:59:36.830Z,95446
2018-04-23T05:02:06.710Z,95444
2018-04-23T05:04:36.627Z,95445
2018-04-23T05:07:07.274Z,95445
2018-04-23T05:09:37.614Z,95451
2018-04-23T05:12:07.544Z,95451
2018-04-23T05:14:37.406Z,95451
2018-04-23T05:17:08.027Z,95459
2018-04-23T05:19:38.707Z,95457
2018-04-23T05:22:08.582Z,95458
2018-04-23T05:24:39.246Z,95453
2018-04-23T05:27:09.127Z,95459
2018-04-23T05:29:39.780Z,95460
2018-04-23T05:32:09.659Z,95460
2018-04-23T05:34:40.346Z,95461
2018-04-23T05:37:10.226Z,95460
2018-04-23T05:39:40.854Z,95459
2018-04-23T05:42:11.497Z,95459
2018-04-23T05:44:41.367Z,95456
2018-04-23T05:47:11.267Z,95457
2018-04-23T05:49:41.127Z,95464
2018-04-23T05:52:11.807Z,95465
2018-04-23T05:54:41.727Z,95465
2018-04-23T05:57:12.466Z,95464
2018-04-23T05:59:42.326Z,95462
2018-04-23T06:02:12.229Z,95458
2018-04-23T06:04:42.855Z,95459
2018-04-23T06:07:12.734Z,95455
2018-04-23T06:09:42.607Z,95463
2018-04-23T06:12:12.485Z,95458
2018-04-23T06:14:43.740Z,95456
2018-04-23T06:17:14.386Z,95465
2018-04-23T06:19:45.082Z,95460
2018-04-23T06:22:14.998Z,95459
2018-04-23T06:24:45.694Z,95456
2018-04-23T06:27:15.544Z,95451
2018-04-23T06:29:46.215Z,95452
2018-04-23T06:32:16.929Z,95449
2018-04-23T06:34:47.831Z,95449
2018-04-23T06:37:17.736Z,95449
2018-04-23T06:39:47.651Z,95454
2018-04-23T06:42:17.553Z,95445
2018-04-23T06:44:47.624Z,95445
2018-04-23T06:47:18.290Z,95447
2018-04-23T06:49:49.113Z,95450
2018-04-23T06:52:19.782Z,95443
2018-04-23T06:54:49.701Z,95443
2018-04-23T06:57:19.573Z,95436
2018-04-23T06:59:49.515Z,95439
2018-04-23T07:02:19.386Z,95435
2018-04-23T07:04:50.399Z,95440
2018-04-23T07:07:20.220Z,95442
2018-04-23T07:09:50.881Z,95439
2018-04-23T07:12:20.764Z,95444
2018-04-23T07:14:51.446Z,95443
2018-04-23T07:17:21.369Z,95444
2018-04-23T07:19:51.390Z,95439
2018-04-23T07:22:21.304Z,95441
2018-04-23T07:24:51.162Z,95442
2018-04-23T07:27:21.851Z,95435
2018-04-23T07:29:52.774Z,95433
2018-04-23T07:32:22.669Z,95433
2018-04-23T07:34:52.621Z,95438
2018-04-23T07:37:23.525Z,95432
2018-04-23T07:39:54.141Z,95430
2018-04-23T07:42:24.053Z,95424
2018-04-23T07:44:54.089Z,95425
2018-04-23T07:47:24.750Z,95427
2018-04-23T07:49:55.470Z,95421
2018-04-23T07:52:25.361Z,95419
2018-04-23T07:54:56.386Z,95419
2018-04-23T07:57:27.167Z,95420
2018-04-23T07:59:57.130Z,95414
2018-04-23T08:02:28.097Z,95403
2018-04-23T08:04:57.997Z,95404
2018-04-23T08:07:28.680Z,95406
2018-04-23T08:09:58.641Z,95399
2018-04-23T08:12:29.293Z,95398
2018-04-23T08:14:59.237Z,95393
2018-04-23T08:17:29.183Z,95385
2018-04-23T08:19:59.902Z,95383
2018-04-23T08:22:30.989Z,95386
2018-04-23T08:25:00.907Z,95381
2018-04-23T08:27:30.812Z,95376
2018-04-23T08:30:00.722Z,95370
2018-04-23T08:32:31.407Z,95372
2018-04-23T08:35:01.304Z,95373
2018-04-23T08:37:31.245Z,95372
2018-04-23T08:40:02.485Z,95373
2018-04-23T08:42:32.378Z,95377
2018-04-23T08:45:03.205Z,95370
2018-04-23T08:47:33.948Z,95370
2018-04-23T08:50:03.932Z,95371
2018-04-23T08:52:34.617Z,95359
2018-04-23T08:55:04.610Z,95364
2018-04-23T08:57:34.458Z,95356
2018-04-23T09:00:05.740Z,95349
2018-04-23T09:02:36.400Z,95349
2018-04-23T09:05:06.314Z,95349
2018-04-23T09:07:36.203Z,95355
2018-04-23T09:10:06.963Z,95356
2018-04-23T09:12:36.872Z,95347
2018-04-23T09:15:07.693Z,95344
2018-04-23T09:17:38.399Z,95345
2018-04-23T09:20:09.146Z,95338
2018-04-23T09:22:39.019Z,95337
2018-04-23T09:25:10.050Z,95336
2018-04-23T09:27:39.946Z,95331
2018-04-23T09:30:09.813Z,95338
2018-04-23T09:32:40.866Z,95337
2018-04-23T09:35:11.525Z,95330
2018-04-23T09:37:41.469Z,95321
2018-04-23T09:40:11.401Z,95317
2018-04-23T09:42:42.114Z,95319
2018-04-23T09:45:12.028Z,95312
2018-04-23T09:47:42.808Z,95309
2018-04-23T09:50:13.470Z,95309
2018-04-23T09:52:43.385Z,95296
2018-04-23T09:55:13.245Z,95293
2018-04-23T09:57:43.154Z,95293
2018-04-23T10:00:14.019Z,95291
2018-04-23T10:02:44.741Z,95289
2018-04-23T10:05:14.630Z,95283
2018-04-23T10:07:45.325Z,95284
2018-04-23T10:10:16.070Z,95278
2018-04-23T10:12:46.003Z,95274
2018-04-23T10:15:15.898Z,95265
2018-04-23T10:17:45.828Z,95261
2018-04-23T10:20:15.749Z,95261
2018-04-23T10:22:45.641Z,95258
2018-04-23T10:25:15.559Z,95255
2018-04-23T10:27:46.226Z,95250
2018-04-23T10:30:16.905Z,95251
2018-04-23T10:32:46.792Z,95244
2018-04-23T10:35:17.467Z,95246
2018-04-23T10:37:47.366Z,95244
2018-04-23T10:40:17.257Z,95236
2018-04-23T10:42:47.192Z,95236
2018-04-23T10:45:17.170Z,95234
2018-04-23T10:47:47.849Z,95228
2018-04-23T10:50:17.760Z,95223
2018-04-23T10:52:47.627Z,95221
2018-04-23T10:55:18.636Z,95219
2018-04-23T10:57:49.307Z,95216
2018-04-23T11:00:19.242Z,95217
2018-04-23T11:02:49.900Z,95208
2018-04-23T11:05:19.795Z,95207
2018-04-23T11:07:49.750Z,95202
2018-04-23T11:10:19.603Z,95200
2018-04-23T11:12:49.802Z,95195
2018-04-23T11:15:20.482Z,95189
2018-04-23T11:17:50.429Z,95189
2018-04-23T11:20:20.309Z,95181
2018-04-23T11:22:50.227Z,95180
2018-04-23T11:25:20.987Z,95178
2018-04-23T11:27:50.887Z,95179
2018-04-23T11:30:20.815Z,95179
2018-04-23T11:32:50.728Z,95176
2018-04-23T11:35:20.661Z,95180
2018-04-23T11:37:51.372Z,95174
2018-04-23T11:40:22.114Z,95173
2018-04-23T11:42:53.080Z,95169
2018-04-23T11:45:22.993Z,95159
2018-04-23T11:47:53.686Z,95157
2018-04-23T11:50:23.571Z,95157
2018-04-23T11:52:53.469Z,95156
2018-04-23T11:55:23.370Z,95150
2018-04-23T11:57:54.127Z,95145
2018-04-23T12:00:24.837Z,95146
2018-04-23T12:02:55.528Z,95140
2018-04-23T12:05:25.439Z,95139
2018-04-23T12:07:56.299Z,95136
2018-04-23T12:10:26.213Z,95125
2018-04-23T12:12:56.113Z,95125
2018-04-23T12:15:26.075Z,95116
2018-04-23T12:17:56.886Z,95117
2018-04-23T12:20:26.786Z,95118
2018-04-23T12:22:56.667Z,95109
2018-04-23T12:25:26.574Z,95117
2018-04-23T12:27:56.478Z,95107
2018-04-23T12:30:27.126Z,95103
2018-04-23T12:32:56.999Z,95102
2018-04-23T12:35:27.733Z,95099
2018-04-23T12:37:58.395Z,95098
2018-04-23T12:40:28.337Z,95089
2018-04-23T12:42:59.049Z,95090
2018-04-23T12:45:28.989Z,95084
2018-04-23T12:47:58.881Z,95079
2018-04-23T12:50:28.876Z,95070
2018-04-23T12:52:58.785Z,95068
2018-04-23T12:55:29.469Z,95069
2018-04-23T12:57:59.333Z,95062
2018-04-23T13:00:29.326Z,95053
2018-04-23T13:03:00.038Z,95058
2018-04-23T13:05:29.997Z,95057
2018-04-23T13:08:00.708Z,95053
2018-04-23T13:10:31.436Z,95056
2018-04-23T13:13:02.132Z,95053
2018-04-23T13:15:32.077Z,95049
2018-04-23T13:18:02.788Z,95050
2018-04-23T13:20:32.692Z,95046
2018-04-23T13:23:02.668Z,95042
2018-04-23T13:25:33.397Z,95051
2018-04-23T13:28:03.334Z,95048
2018-04-23T13:30:34.164Z,95047
2018-04-23T13:33:04.866Z,95043
2018-04-23T13:35:35.739Z,95054
2018-04-23T13:38:05.703Z,95058
2018-04-23T13:40:35.657Z,95061
2018-04-23T13:43:05.598Z,95051
2018-04-23T13:45:35.700Z,95057
2018-04-23T13:48:06.536Z,95047
2018-04-23T13:50:36.529Z,95042
2018-04-23T13:53:07.206Z,95040
2018-04-23T13:55:37.967Z,95047
2018-04-23T13:58:08.696Z,95040
2018-04-23T14:00:38.633Z,95031
2018-04-23T14:03:10.647Z,95030
2018-04-23T14:05:40.654Z,95029
2018-04-23T14:08:10.552Z,95026
2018-04-23T14:10:41.187Z,95035
2018-04-23T14:13:11.849Z,95033
2018-04-23T14:15:41.723Z,95037
2018-04-23T14:18:11.665Z,95034
2018-04-23T14:20:41.551Z,95038
2018-04-23T14:23:12.889Z,95042
2018-04-23T14:25:43.758Z,95048
2018-04-23T14:28:14.988Z,95046
2018-04-23T14:30:45.429Z,95049
2018-04-23T14:33:15.435Z,95049
2018-04-23T14:35:46.194Z,95041
2018-04-23T14:38:16.872Z,95042
2018-04-23T14:40:47.586Z,95041
2018-04-23T14:43:17.547Z,95039
2018-04-23T14:45:47.572Z,95039
2018-04-23T14:48:18.576Z,95042
2018-04-23T14:50:49.285Z,95041
2018-04-23T14:53:19.978Z,95045
2018-04-23T14:55:49.904Z,95051
2018-04-23T14:58:19.872Z,95049
2018-04-23T15:00:50.594Z,95051
2018-04-23T15:03:21.303Z,95036
2018-04-23T15:05:51.214Z,95033
2018-04-23T15:08:22.159Z,95036
2018-04-23T15:10:52.065Z,95042
2018-04-23T15:13:21.981Z,95038
2018-04-23T15:15:51.917Z,95036
2018-04-23T15:18:22.961Z,95037
2018-04-23T15:20:52.865Z,95035
2018-04-23T15:23:22.772Z,95040
2018-04-23T15:25:53.531Z,95038
2018-04-23T15:28:24.417Z,95042
2018-04-23T15:30:54.336Z,95045
2018-04-23T15:33:24.266Z,95049
2018-04-23T15:35:55.073Z,95038
2018-04-23T15:38:25.739Z,95041
2018-04-23T15:40:55.613Z,95043
2018-04-23T15:43:25.567Z,95052
2018-04-23T15:45:55.486Z,95045
2018-04-23T15:48:25.385Z,95046
2018-04-23T15:50:55.289Z,95032
2018-04-23T15:53:25.287Z,95050
2018-04-23T15:55:55.949Z,95052
2018-04-23T15:58:26.738Z,95056
2018-04-23T16:00:57.382Z,95057
2018-04-23T16:03:28.055Z,95068
2018-04-23T16:05:58.008Z,95068
2018-04-23T16:08:28.689Z,95067
2018-04-23T16:10:59.564Z,95070
2018-04-23T16:13:29.473Z,95072
2018-04-23T16:16:00.235Z,95079
2018-04-23T16:18:30.416Z,95082
2018-04-23T16:21:00.316Z,95085
2018-04-23T16:23:30.186Z,95077
2018-04-23T16:26:00.821Z,95070
2018-04-23T16:28:31.515Z,95067
2018-04-23T16:31:01.453Z,95067
2018-04-23T16:33:31.381Z,95069
2018-04-23T16:36:02.021Z,95080
2018-04-23T16:38:35.556Z,95073
2018-04-23T16:44:27.166Z,95069
2018-04-23T16:46:55.197Z,95079
2018-04-23T16:49:25.872Z,95071
2018-04-23T16:51:55.755Z,95069
2018-04-23T16:54:26.438Z,95078
2018-04-23T16:56:56.291Z,95081
2018-04-23T16:59:27.001Z,95078
2018-04-23T17:01:57.729Z,95083
2018-04-23T17:04:27.600Z,95080
2018-04-23T17:06:58.350Z,95083
2018-04-23T17:09:28.240Z,95081
2018-04-23T17:11:58.935Z,95096
2018-04-23T17:14:29.958Z,95096
2018-04-23T17:16:59.887Z,95100
2018-04-23T17:19:29.789Z,95117
2018-04-23T17:21:59.709Z,95098
2018-04-23T17:24:29.619Z,95115
2018-04-23T17:26:59.565Z,95117
2018-04-23T17:29:30.353Z,95122
2018-04-23T17:32:01.294Z,95135
2018-04-23T17:34:31.215Z,95139
2018-04-23T17:37:01.140Z,95141
2018-04-23T17:39:31.022Z,95158
2018-04-23T17:42:02.035Z,95160
2018-04-23T17:44:32.758Z,95164
2018-04-23T17:47:02.688Z,95180
2018-04-23T17:49:33.418Z,95191
2018-04-23T17:52:04.132Z,95189
2018-04-23T17:54:34.072Z,95197
2018-04-23T17:57:04.775Z,95210
2018-04-23T17:59:34.688Z,95210
2018-04-23T18:02:05.482Z,95223
2018-04-23T18:04:35.401Z,95228
2018-04-23T18:07:05.392Z,95230
2018-04-23T18:09:36.059Z,95235
2018-04-23T18:12:06.984Z,95251
2018-04-23T18:14:37.133Z,95260
2018-04-23T18:17:07.000Z,95271
2018-04-23T18:19:38.046Z,95264
2018-04-23T18:22:08.700Z,95277
2018-04-23T18:24:38.598Z,95278
2018-04-23T18:27:09.458Z,95278
2018-04-23T18:29:39.389Z,95286
2018-04-23T18:32:09.982Z,95291
2018-04-23T18:34:39.886Z,95291
2018-04-23T18:37:11.637Z,95296
2018-04-23T18:39:42.589Z,95296
2018-04-23T18:42:12.510Z,95306
2018-04-23T18:44:42.426Z,95309
2018-04-23T18:47:13.166Z,95317
2018-04-23T18:49:43.078Z,95319
2018-04-23T18:52:13.156Z,95317
2018-04-23T18:54:44.163Z,95322
2018-04-23T18:57:14.060Z,95326
2018-04-23T18:59:44.049Z,95335
2018-04-23T19:02:14.000Z,95338
2018-04-23T19:04:44.740Z,95341
2018-04-23T19:07:15.461Z,95347
2018-04-23T19:09:45.385Z,95344
2018-04-23T19:12:15.293Z,95349
2018-04-23T19:14:45.230Z,95352
2018-04-23T19:17:15.981Z,95353
2018-04-23T19:19:46.459Z,95360
2018-04-23T19:22:16.345Z,95356
2018-04-23T19:24:46.238Z,95360
2018-04-23T19:27:17.337Z,95367
2018-04-23T19:29:47.255Z,95364
2018-04-23T19:32:17.237Z,95368
2018-04-23T19:34:47.187Z,95377
2018-04-23T19:37:17.108Z,95379
2018-04-23T19:39:48.116Z,95382
2018-04-23T19:42:18.043Z,95380
2018-04-23T19:44:47.953Z,95385
2018-04-23T19:47:18.985Z,95382
2018-04-23T19:49:49.726Z,95379
2018-04-23T19:52:19.671Z,95381
2018-04-23T19:54:50.413Z,95385
2018-04-23T19:57:21.145Z,95393
2018-04-23T19:59:51.101Z,95390
2018-04-23T20:02:21.824Z,95387
2018-04-23T20:04:52.514Z,95380
2018-04-23T20:07:23.439Z,95389
2018-04-23T20:09:53.408Z,95388
2018-04-23T20:12:23.693Z,95393
2018-04-23T20:14:55.181Z,95393
2018-04-23T20:17:25.834Z,95389
2018-04-23T20:19:55.735Z,95397
2018-04-23T20:22:26.435Z,95395
2018-04-23T20:24:57.160Z,95396
2018-04-23T20:27:27.874Z,95392
2018-04-23T20:29:57.811Z,95394
2018-04-23T20:32:28.490Z,95392
2018-04-23T20:34:58.427Z,95397
2018-04-23T20:37:28.346Z,95402
2018-04-23T20:39:59.167Z,95402
2018-04-23T20:42:29.062Z,95405
2018-04-23T20:44:59.071Z,95407
2018-04-23T20:47:29.746Z,95410
2018-04-23T20:49:59.587Z,95410
2018-04-23T20:52:30.319Z,95414
2018-04-23T20:55:01.021Z,95416
2018-04-23T20:57:30.960Z,95426
2018-04-23T21:00:01.708Z,95430
2018-04-23T21:02:31.681Z,95428
2018-04-23T21:05:01.570Z,95423
2018-04-23T21:07:32.221Z,95422
2018-04-23T21:10:02.124Z,95420
2018-04-23T21:12:32.028Z,95422
2018-04-23T21:15:01.985Z,95430
2018-04-23T21:17:31.857Z,95423
2018-04-23T21:20:02.517Z,95437
2018-04-23T21:22:32.486Z,95431
2018-04-23T21:25:03.181Z,95439
2018-04-23T21:27:33.114Z,95440
2018-04-23T21:30:03.040Z,95452
2018-04-23T21:32:33.759Z,95451
2018-04-23T21:35:03.660Z,95463
2018-04-23T21:37:33.612Z,95463
2018-04-23T21:40:04.378Z,95469
2018-04-23T21:42:34.290Z,95478
2018-04-23T21:45:05.254Z,95487
2018-04-23T21:47:35.185Z,95493
2018-04-23T21:50:05.989Z,95496
2018-04-23T21:52:36.945Z,95507
2018-04-23T21:55:06.818Z,95512
2018-04-23T21:57:37.466Z,95510
2018-04-23T22:00:07.387Z,95517
2018-04-23T22:02:37.292Z,95518
2018-04-23T22:05:07.206Z,95513
2018-04-23T22:07:37.960Z,95519
2018-04-23T22:10:07.843Z,95525
2018-04-23T22:12:37.737Z,95523
2018-04-23T22:15:08.423Z,95521
2018-04-23T22:17:38.278Z,95526
2018-04-23T22:20:08.965Z,95526
2018-04-23T22:22:38.846Z,95536
2018-04-23T22:25:09.527Z,95538
2018-04-23T22:27:39.437Z,95541
2018-04-23T22:30:09.371Z,95550
2018-04-23T22:32:40.077Z,95555
2018-04-23T22:35:10.806Z,95564
2018-04-23T22:37:40.720Z,95569
2018-04-23T22:40:11.433Z,95570
2018-04-23T22:42:41.325Z,95574
2018-04-23T22:45:11.314Z,95583
2018-04-23T22:47:42.020Z,95587
2018-04-23T22:50:11.908Z,95600
2018-04-23T22:52:41.797Z,95601
2018-04-23T22:55:12.500Z,95602
2018-04-23T22:57:42.395Z,95611
2018-04-23T23:00:13.885Z,95606
2018-04-23T23:02:43.808Z,95615
2018-04-23T23:05:13.714Z,95614
2018-04-23T23:07:43.648Z,95613
2018-04-23T23:10:13.522Z,95618
2018-04-23T23:12:43.417Z,95617
2018-04-23T23:15:13.267Z,95613
2018-04-23T23:17:43.146Z,95613
2018-04-23T23:20:13.825Z,95608
2018-04-23T23:22:44.577Z,95614
2018-04-23T23:25:15.506Z,95608
2018-04-23T23:27:45.429Z,95613
2018-04-23T23:30:16.089Z,95607
2018-04-23T23:32:46.829Z,95608
2018-04-23T23:35:16.687Z,95613
2018-04-23T23:37:47.858Z,95611
2018-04-23T23:40:17.721Z,95611
2018-04-23T23:42:48.514Z,95608
2018-04-23T23:45:18.402Z,95604
2018-04-23T23:47:48.285Z,95600
2018-04-23T23:50:18.980Z,95597
2018-04-23T23:52:49.718Z,95597
2018-04-23T23:55:19.609Z,95602
2018-04-23T23:57:49.500Z,95602
